Time;durP1;ratioP1;P1;durP2;ratioP2;P2;SDS_P1;SDS_P2;PMS_P1;PMS_P2;Temp;Humidity;BMP_temperature;BMP_pressure;BME280_temperature;BME280_humidity;BME280_pressure;Samples;Min_cycle;Max_cycle;Signal;HPM_P1;HPM_P2
2022/06/05 00:01:43;;;;;;;12.90;7.53;;;13.00;99.90;;;;;;5074084;28;20052;-43
2022/06/05 00:04:19;;;;;;;18.50;10.65;;;12.90;99.90;;;;;;5071691;28;20040;-43
2022/06/05 00:06:49;;;;;;;15.52;9.73;;;12.90;99.90;;;;;;5053389;28;20044;-43
2022/06/05 00:09:22;;;;;;;15.45;10.25;;;12.90;99.90;;;;;;5054004;28;20123;-43
2022/06/05 00:11:52;;;;;;;14.20;8.40;;;12.80;99.90;;;;;;5063947;28;20114;-42
2022/06/05 00:14:19;;;;;;;16.65;10.40;;;12.80;99.90;;;;;;5052608;28;20087;-43
2022/06/05 00:16:46;;;;;;;15.50;10.18;;;12.80;99.90;;;;;;5054058;28;20460;-43
2022/06/05 00:19:14;;;;;;;16.30;10.15;;;12.70;99.90;;;;;;5053959;28;20083;-43
2022/06/05 00:21:41;;;;;;;16.63;10.48;;;12.70;99.90;;;;;;5052325;28;20053;-44
2022/06/05 00:24:08;;;;;;;16.95;10.13;;;12.70;99.90;;;;;;5052315;28;20041;-43
2022/06/05 00:26:41;;;;;;;12.77;8.85;;;12.70;99.90;;;;;;5053567;28;20048;-43
2022/06/05 00:29:13;;;;;;;17.77;9.63;;;12.70;99.90;;;;;;5063989;28;20044;-43
2022/06/05 00:31:43;;;;;;;15.38;9.35;;;12.60;99.90;;;;;;5072888;28;20052;-42
2022/06/05 00:34:10;;;;;;;17.48;10.45;;;12.70;99.90;;;;;;5063264;28;20053;-43
2022/06/05 00:36:56;;;;;;;14.82;10.32;;;12.70;99.90;;;;;;5055122;28;20052;-42
2022/06/05 00:39:27;;;;;;;15.18;10.00;;;12.70;99.90;;;;;;5057375;28;20102;-43
2022/06/05 00:41:56;;;;;;;15.02;11.02;;;12.70;99.90;;;;;;5059592;28;20107;-43
2022/06/05 00:44:26;;;;;;;16.38;9.60;;;12.70;99.90;;;;;;5056701;28;20041;-43
2022/06/05 00:46:53;;;;;;;18.15;11.40;;;12.60;99.90;;;;;;5053222;28;20634;-43
2022/06/05 00:49:20;;;;;;;18.58;10.63;;;12.60;99.90;;;;;;5052926;28;20103;-43
2022/06/05 00:51:48;;;;;;;16.67;9.68;;;12.50;99.90;;;;;;5052737;28;20056;-42
2022/06/05 00:54:15;;;;;;;21.65;11.80;;;12.60;99.90;;;;;;5060901;28;20053;-42
2022/06/05 00:56:42;;;;;;;18.65;11.70;;;12.60;99.90;;;;;;5068067;28;20049;-43
2022/06/05 00:59:10;;;;;;;18.67;11.70;;;12.50;99.90;;;;;;5066437;28;20403;-43
2022/06/05 01:01:37;;;;;;;14.10;10.02;;;12.50;99.90;;;;;;5063900;28;20064;-43
2022/06/05 01:04:04;;;;;;;21.85;11.65;;;12.50;99.90;;;;;;5052157;28;20084;-42
2022/06/05 01:06:31;;;;;;;16.63;10.68;;;12.50;99.90;;;;;;5063640;28;20056;-42
2022/06/05 01:08:59;;;;;;;19.23;11.75;;;12.50;99.90;;;;;;5051889;28;20083;-43
2022/06/05 01:11:30;;;;;;;18.55;11.23;;;12.50;99.90;;;;;;5054201;28;20564;-43
2022/06/05 01:14:02;;;;;;;17.70;10.30;;;12.50;99.90;;;;;;5065256;28;20556;-42
2022/06/05 01:16:30;;;;;;;17.75;12.57;;;12.50;99.90;;;;;;5051833;28;20288;-42
2022/06/05 01:19:07;;;;;;;20.20;11.68;;;12.50;99.90;;;;;;5051355;28;20056;-43
2022/06/05 01:21:58;;;;;;;20.27;12.52;;;12.50;99.90;;;;;;5051397;28;20052;-43
2022/06/05 01:24:54;;;;;;;22.63;12.45;;;12.60;99.90;;;;;;5062984;28;20486;-43
2022/06/05 01:27:23;;;;;;;18.98;12.27;;;12.50;99.90;;;;;;5051448;28;20088;-43
2022/06/05 01:29:51;;;;;;;21.80;12.05;;;12.50;99.90;;;;;;5051267;28;20044;-43
2022/06/05 01:32:21;;;;;;;16.20;10.38;;;12.50;99.90;;;;;;5055946;28;20174;-43
2022/06/05 01:34:49;;;;;;;17.00;11.07;;;12.50;99.90;;;;;;5068707;28;20129;-43
2022/06/05 01:37:17;;;;;;;16.27;11.18;;;12.50;99.90;;;;;;5052827;28;20053;-43
2022/06/05 01:39:45;;;;;;;23.90;13.02;;;12.50;99.90;;;;;;5068254;28;20527;-45
2022/06/05 01:42:14;;;;;;;20.17;11.02;;;12.50;99.90;;;;;;5071637;28;20090;-44
2022/06/05 01:44:44;;;;;;;16.35;12.48;;;12.50;99.90;;;;;;5056366;28;20081;-44
2022/06/05 01:47:13;;;;;;;13.80;10.43;;;12.50;99.90;;;;;;5052756;28;20045;-44
2022/06/05 01:49:42;;;;;;;15.30;10.18;;;12.50;99.90;;;;;;5062942;28;20464;-44
2022/06/05 01:52:10;;;;;;;16.45;10.85;;;12.50;99.90;;;;;;5050847;28;20132;-44
2022/06/05 01:54:40;;;;;;;14.23;10.68;;;12.50;99.90;;;;;;5050365;28;20501;-43
2022/06/05 01:57:08;;;;;;;11.18;8.80;;;12.50;99.90;;;;;;5054860;28;20458;-44
2022/06/05 01:59:38;;;;;;;18.13;10.52;;;12.50;99.90;;;;;;5056121;28;20057;-44
2022/06/05 02:02:07;;;;;;;16.55;11.60;;;12.50;99.90;;;;;;5053803;28;20140;-45
2022/06/05 02:04:35;;;;;;;23.67;12.68;;;12.50;99.90;;;;;;5065172;28;20056;-44
2022/06/05 02:07:05;;;;;;;19.70;10.90;;;12.50;99.90;;;;;;5055172;28;20106;-43
2022/06/05 02:09:34;;;;;;;14.25;10.38;;;12.50;99.90;;;;;;5055611;28;20106;-44
2022/06/05 02:12:02;;;;;;;24.77;13.35;;;12.50;99.90;;;;;;5060412;28;20079;-44
2022/06/05 02:14:28;;;;;;;22.05;12.38;;;12.50;99.90;;;;;;5070564;28;20049;-44
2022/06/05 02:16:55;;;;;;;18.15;12.30;;;12.40;99.90;;;;;;5055471;28;20099;-44
2022/06/05 02:19:23;;;;;;;21.15;13.05;;;12.40;99.90;;;;;;5050970;28;20501;-44
2022/06/05 02:21:50;;;;;;;20.50;13.77;;;12.40;99.90;;;;;;5050933;28;20053;-44
2022/06/05 02:24:17;;;;;;;20.85;12.70;;;12.30;99.90;;;;;;5069364;28;20088;-43
2022/06/05 02:26:44;;;;;;;23.77;13.43;;;12.30;99.90;;;;;;5058367;28;20103;-44
2022/06/05 02:29:13;;;;;;;20.35;13.07;;;12.20;99.90;;;;;;5055535;28;20103;-44
2022/06/05 02:31:45;;;;;;;18.05;11.88;;;12.20;99.90;;;;;;5069260;28;20094;-44
2022/06/05 02:34:16;;;;;;;19.40;12.45;;;12.20;99.90;;;;;;5056521;28;20041;-44
2022/06/05 02:36:51;;;;;;;20.52;14.48;;;12.20;99.90;;;;;;5067107;28;20105;-44
2022/06/05 02:39:24;;;;;;;25.33;14.07;;;12.30;99.90;;;;;;5071916;28;20059;-44
2022/06/05 02:41:55;;;;;;;17.77;13.02;;;12.20;99.90;;;;;;5074826;28;20493;-44
2022/06/05 02:44:31;;;;;;;22.23;12.50;;;12.20;99.90;;;;;;5074881;28;20044;-43
2022/06/05 02:47:03;;;;;;;22.08;13.30;;;12.30;99.90;;;;;;5063546;28;20080;-44
2022/06/05 02:49:32;;;;;;;25.15;15.38;;;12.20;99.90;;;;;;5054901;28;20053;-44
2022/06/05 02:52:04;;;;;;;22.08;15.25;;;12.20;99.90;;;;;;5056278;28;20048;-43
2022/06/05 02:54:31;;;;;;;21.98;14.52;;;12.20;99.90;;;;;;5055134;28;20106;-44
2022/06/05 02:56:57;;;;;;;25.88;15.55;;;12.20;99.90;;;;;;5069625;28;20045;-44
2022/06/05 02:59:24;;;;;;;22.83;15.57;;;12.20;99.90;;;;;;5061540;28;20484;-43
2022/06/05 03:04:36;;;;;;;22.52;15.95;;;12.20;99.90;;;;;;5062548;28;20078;-43
2022/06/05 03:07:04;;;;;;;26.48;15.55;;;12.20;99.90;;;;;;5059475;28;20048;-43
2022/06/05 03:09:31;;;;;;;20.88;14.60;;;12.20;99.90;;;;;;5068343;28;20080;-44
2022/06/05 03:11:58;;;;;;;23.67;15.90;;;12.20;99.90;;;;;;5060217;28;20049;-43
2022/06/05 03:14:24;;;;;;;24.02;15.98;;;12.20;99.90;;;;;;5054136;28;20127;-43
2022/06/05 03:16:52;;;;;;;23.38;15.57;;;12.20;99.90;;;;;;5060826;28;20481;-44
2022/06/05 03:19:19;;;;;;;25.45;16.13;;;12.10;99.90;;;;;;5058966;28;20053;-43
2022/06/05 03:21:46;;;;;;;22.83;15.95;;;12.20;99.90;;;;;;5054781;28;20126;-43
2022/06/05 03:24:14;;;;;;;23.02;15.27;;;12.20;99.90;;;;;;5053073;28;20614;-43
2022/06/05 03:26:41;;;;;;;21.10;14.32;;;12.20;99.90;;;;;;5053969;28;20477;-42
2022/06/05 03:29:08;;;;;;;24.30;14.98;;;12.20;99.90;;;;;;5055163;28;20048;-42
2022/06/05 03:31:35;;;;;;;22.08;15.75;;;12.20;99.90;;;;;;5054300;28;20059;-43
2022/06/05 03:34:02;;;;;;;23.98;15.57;;;12.20;99.90;;;;;;5063318;28;20560;-42
2022/06/05 03:36:29;;;;;;;29.67;18.20;;;12.20;99.90;;;;;;5061283;28;20127;-43
2022/06/05 03:38:55;;;;;;;20.30;14.65;;;12.20;99.90;;;;;;5054217;28;20493;-43
2022/06/05 03:41:23;;;;;;;22.45;14.80;;;12.30;99.90;;;;;;5057172;28;20107;-43
2022/06/05 03:43:50;;;;;;;22.08;15.18;;;12.30;99.90;;;;;;5054811;28;20071;-43
2022/06/05 03:46:17;;;;;;;25.38;15.88;;;12.30;99.90;;;;;;5052990;28;20098;-42
2022/06/05 03:48:44;;;;;;;24.35;15.85;;;12.30;99.90;;;;;;5053093;28;20443;-43
2022/06/05 03:51:12;;;;;;;26.02;17.00;;;12.30;99.90;;;;;;5053846;28;20513;-43
2022/06/05 03:53:39;;;;;;;26.33;16.52;;;12.30;99.90;;;;;;5063445;28;20507;-43
2022/06/05 03:56:09;;;;;;;24.58;14.32;;;12.30;99.90;;;;;;5068923;28;20504;-43
2022/06/05 03:58:37;;;;;;;23.33;17.50;;;12.30;99.90;;;;;;5052676;28;20144;-42
2022/06/05 04:01:04;;;;;;;29.50;18.05;;;12.30;99.90;;;;;;5055903;28;20045;-43
2022/06/05 04:03:31;;;;;;;24.52;16.80;;;12.30;99.90;;;;;;5057567;28;20789;-43
2022/06/05 04:05:57;;;;;;;27.92;17.92;;;12.40;99.90;;;;;;5073265;28;20102;-43
2022/06/05 04:08:24;;;;;;;23.33;15.82;;;12.40;99.90;;;;;;5062096;28;20057;-43
2022/06/05 04:10:51;;;;;;;17.88;14.15;;;12.40;99.90;;;;;;5070733;28;20063;-43
2022/06/05 04:13:18;;;;;;;25.83;16.45;;;12.40;99.90;;;;;;5058935;28;20537;-43
2022/06/05 04:15:46;;;;;;;18.70;14.98;;;12.40;99.90;;;;;;5062783;28;20122;-43
2022/06/05 04:18:13;;;;;;;26.50;17.27;;;12.50;99.90;;;;;;5051678;28;20081;-43
2022/06/05 04:20:40;;;;;;;26.10;17.33;;;12.50;99.90;;;;;;5054009;28;20402;-43
2022/06/05 04:23:08;;;;;;;23.95;16.90;;;12.40;99.90;;;;;;5058599;28;20044;-43
2022/06/05 04:25:35;;;;;;;22.63;15.75;;;12.60;99.90;;;;;;5053573;28;20092;-43
2022/06/05 04:28:02;;;;;;;23.95;16.13;;;12.60;99.90;;;;;;5051939;28;20041;-43
2022/06/05 04:30:29;;;;;;;25.15;16.15;;;12.60;99.90;;;;;;5052216;28;20114;-44
2022/06/05 04:32:59;;;;;;;27.90;16.38;;;12.70;99.90;;;;;;5053561;28;20106;-43
2022/06/05 04:35:26;;;;;;;23.00;17.13;;;12.70;99.90;;;;;;5072446;28;20500;-43
2022/06/05 04:37:52;;;;;;;21.50;16.40;;;12.80;99.90;;;;;;5056925;28;20447;-43
2022/06/05 04:40:19;;;;;;;23.40;16.40;;;12.80;99.90;;;;;;5072393;28;20566;-43
2022/06/05 04:42:46;;;;;;;23.55;16.02;;;12.90;99.90;;;;;;5072683;28;20072;-43
2022/06/05 04:45:13;;;;;;;21.88;15.45;;;13.00;99.90;;;;;;5064767;28;20055;-44
2022/06/05 04:47:40;;;;;;;21.27;16.58;;;13.00;99.90;;;;;;5052285;28;20486;-44
2022/06/05 04:50:09;;;;;;;20.58;15.93;;;13.10;99.90;;;;;;5053412;28;20056;-44
2022/06/05 04:52:36;;;;;;;21.67;15.70;;;13.10;99.90;;;;;;5051102;28;20053;-44
2022/06/05 04:55:03;;;;;;;22.63;15.52;;;13.20;99.90;;;;;;5051870;28;20407;-43
2022/06/05 04:57:30;;;;;;;24.73;15.82;;;13.30;99.90;;;;;;5058406;28;20040;-44
2022/06/05 04:59:56;;;;;;;21.60;16.63;;;13.40;99.90;;;;;;5057216;28;20080;-42
2022/06/05 05:02:23;;;;;;;19.52;14.70;;;13.40;99.90;;;;;;5069863;28;20057;-43
2022/06/05 05:04:50;;;;;;;17.85;14.02;;;13.50;99.90;;;;;;5061912;28;20063;-43
2022/06/05 05:07:18;;;;;;;22.80;15.60;;;13.50;99.90;;;;;;5073015;28;20456;-44
2022/06/05 05:09:45;;;;;;;19.23;14.50;;;13.60;99.90;;;;;;5059502;28;20061;-44
2022/06/05 05:12:12;;;;;;;21.63;14.90;;;13.60;99.90;;;;;;5072874;28;20118;-43
2022/06/05 05:14:39;;;;;;;21.15;15.27;;;13.70;99.90;;;;;;5070709;28;20048;-43
2022/06/05 05:17:06;;;;;;;20.95;15.65;;;13.70;99.90;;;;;;5064267;28;20461;-43
2022/06/05 05:19:33;;;;;;;19.85;15.85;;;13.80;99.90;;;;;;5052547;28;20098;-43
2022/06/05 05:22:00;;;;;;;21.00;15.00;;;13.80;99.90;;;;;;5052866;28;20068;-43
2022/06/05 05:24:28;;;;;;;22.50;15.27;;;13.90;99.90;;;;;;5051392;28;20056;-42
2022/06/05 05:26:55;;;;;;;21.60;15.75;;;13.90;99.90;;;;;;5051416;28;20103;-42
2022/06/05 05:29:22;;;;;;;21.08;15.45;;;14.00;99.90;;;;;;5052019;28;20056;-42
2022/06/05 05:31:50;;;;;;;18.20;14.30;;;14.10;99.90;;;;;;5052360;28;20119;-43
2022/06/05 05:34:16;;;;;;;22.45;16.38;;;14.10;99.90;;;;;;5060587;28;20481;-42
2022/06/05 05:36:43;;;;;;;20.98;15.05;;;14.20;99.90;;;;;;5070264;28;20056;-43
2022/06/05 05:42:08;;;;;;;23.02;15.25;;;14.30;99.90;;;;;;5052338;28;20057;-43
2022/06/05 05:44:37;;;;;;;18.73;13.98;;;14.30;99.90;;;;;;5065218;28;20055;-43
2022/06/05 05:47:06;;;;;;;22.55;14.77;;;14.40;99.90;;;;;;5052178;28;20099;-43
2022/06/05 05:49:32;;;;;;;22.27;15.57;;;14.40;99.90;;;;;;5052617;28;20436;-43
2022/06/05 05:51:59;;;;;;;22.35;14.95;;;14.50;99.90;;;;;;5072428;28;20044;-43
2022/06/05 05:54:26;;;;;;;20.83;15.38;;;14.50;99.90;;;;;;5051070;28;20123;-43
2022/06/05 05:56:53;;;;;;;20.20;15.52;;;14.50;99.90;;;;;;5051557;28;20122;-42
2022/06/05 05:59:21;;;;;;;21.63;15.60;;;14.50;99.90;;;;;;5054217;28;20049;-43
2022/06/05 06:01:48;;;;;;;20.58;15.35;;;14.60;99.90;;;;;;5054798;28;20053;-43
2022/06/05 06:04:15;;;;;;;22.80;16.23;;;14.70;99.90;;;;;;5052204;28;20398;-43
2022/06/05 06:06:43;;;;;;;24.63;15.82;;;14.70;99.90;;;;;;5055464;28;20045;-43
2022/06/05 06:09:10;;;;;;;23.90;15.82;;;14.80;99.90;;;;;;5054714;28;20507;-42
2022/06/05 06:11:37;;;;;;;25.10;15.40;;;14.90;99.90;;;;;;5054160;28;20106;-46
2022/06/05 06:14:03;;;;;;;26.23;15.73;;;15.00;99.90;;;;;;5056196;28;20073;-43
2022/06/05 06:16:32;;;;;;;19.75;14.65;;;15.10;99.90;;;;;;5054497;28;20397;-43
2022/06/05 06:18:58;;;;;;;22.63;15.50;;;15.10;99.90;;;;;;5071428;28;20497;-42
2022/06/05 06:21:25;;;;;;;17.00;15.23;;;15.20;99.90;;;;;;5054217;28;20131;-43
2022/06/05 06:23:52;;;;;;;22.45;15.88;;;15.20;99.90;;;;;;5056994;28;20056;-42
2022/06/05 06:26:19;;;;;;;19.33;14.88;;;15.30;99.90;;;;;;5054405;28;20128;-42
2022/06/05 06:28:46;;;;;;;16.65;14.00;;;15.40;99.90;;;;;;5053566;28;20053;-41
2022/06/05 06:31:14;;;;;;;17.95;14.80;;;15.50;99.90;;;;;;5053130;28;20049;-42
2022/06/05 06:33:42;;;;;;;21.60;14.88;;;15.60;99.90;;;;;;5057287;28;20045;-43
2022/06/05 06:36:11;;;;;;;21.58;14.50;;;15.70;99.90;;;;;;5053160;28;20057;-43
2022/06/05 06:38:38;;;;;;;17.88;14.25;;;15.80;99.90;;;;;;5056610;28;20573;-43
2022/06/05 06:41:06;;;;;;;17.02;13.35;;;15.90;99.90;;;;;;5063095;28;20048;-43
2022/06/05 06:43:33;;;;;;;16.05;14.35;;;16.00;99.90;;;;;;5058006;28;20049;-43
2022/06/05 06:46:00;;;;;;;17.35;14.23;;;16.10;99.90;;;;;;5056092;28;20061;-43
2022/06/05 06:48:27;;;;;;;17.27;13.18;;;16.30;99.90;;;;;;5052827;28;20052;-43
2022/06/05 06:50:55;;;;;;;17.30;13.23;;;16.40;99.90;;;;;;5052870;28;20485;-43
2022/06/05 06:53:22;;;;;;;18.60;13.38;;;16.60;99.90;;;;;;5065512;28;20497;-42
2022/06/05 06:55:49;;;;;;;21.92;14.82;;;16.70;99.90;;;;;;5033889;28;1079788;-43
2022/06/05 06:58:16;;;;;;;17.85;13.30;;;16.90;99.90;;;;;;5061303;28;20068;-43
2022/06/05 07:00:43;;;;;;;14.45;11.73;;;17.00;99.90;;;;;;5069236;28;20084;-42
2022/06/05 07:03:09;;;;;;;16.70;13.70;;;17.20;99.90;;;;;;5061369;28;20102;-43
2022/06/05 07:05:37;;;;;;;17.30;13.68;;;17.30;99.90;;;;;;5054672;28;20048;-43
2022/06/05 07:08:06;;;;;;;15.75;12.85;;;17.50;99.90;;;;;;5053362;28;20049;-43
2022/06/05 07:10:33;;;;;;;18.42;13.30;;;17.60;99.90;;;;;;5053641;28;20088;-43
2022/06/05 07:13:00;;;;;;;16.60;12.75;;;17.80;99.90;;;;;;5054751;28;20088;-43
2022/06/05 07:15:33;;;;;;;16.35;12.73;;;17.90;99.90;;;;;;5058276;28;20041;-43
2022/06/05 07:18:00;;;;;;;14.15;12.32;;;18.00;99.90;;;;;;5054785;28;20497;-43
2022/06/05 07:20:27;;;;;;;16.20;11.93;;;18.20;99.90;;;;;;5053465;28;20131;-44
2022/06/05 07:22:54;;;;;;;14.30;11.85;;;18.20;99.80;;;;;;5055076;28;20053;-43
2022/06/05 07:25:22;;;;;;;16.23;11.38;;;18.30;99.50;;;;;;5055559;28;20508;-44
2022/06/05 07:27:49;;;;;;;14.18;11.98;;;18.40;99.70;;;;;;5066061;28;20052;-44
2022/06/05 07:30:16;;;;;;;15.80;11.30;;;18.50;99.30;;;;;;5066170;28;20048;-43
2022/06/05 07:32:42;;;;;;;15.55;10.70;;;18.60;99.00;;;;;;5054405;28;20142;-44
2022/06/05 07:35:11;;;;;;;14.15;11.00;;;18.70;98.70;;;;;;5066940;28;20045;-43
2022/06/05 07:37:38;;;;;;;13.90;10.18;;;18.80;98.70;;;;;;5054959;28;20466;-43
2022/06/05 07:40:07;;;;;;;11.63;10.20;;;19.00;98.80;;;;;;5086743;28;20102;-43
2022/06/05 07:42:37;;;;;;;15.02;9.75;;;19.10;97.80;;;;;;5075692;28;20106;-43
2022/06/05 07:45:05;;;;;;;11.98;10.38;;;19.20;97.70;;;;;;5078374;28;20480;-44
2022/06/05 07:47:32;;;;;;;12.77;9.68;;;19.40;97.20;;;;;;5075231;28;20080;-44
2022/06/05 07:49:58;;;;;;;14.88;8.73;;;19.50;96.80;;;;;;5085017;28;20442;-43
2022/06/05 07:55:10;;;;;;;12.45;9.18;;;19.80;96.10;;;;;;5054089;28;20398;-44
2022/06/05 07:57:39;;;;;;;12.25;9.68;;;19.80;96.00;;;;;;5054538;28;20103;-43
2022/06/05 08:00:07;;;;;;;13.85;9.35;;;19.90;95.60;;;;;;5062387;28;20120;-44
2022/06/05 08:02:34;;;;;;;13.05;8.98;;;19.90;95.90;;;;;;5062516;28;20343;-44
2022/06/05 08:05:02;;;;;;;11.48;9.20;;;20.00;95.50;;;;;;5094512;28;20064;-43
2022/06/05 08:07:29;;;;;;;15.80;8.45;;;20.00;95.10;;;;;;5094327;28;20381;-45
2022/06/05 08:09:56;;;;;;;11.45;7.90;;;20.10;94.90;;;;;;5079697;28;20449;-44
2022/06/05 08:12:25;;;;;;;12.90;8.25;;;20.20;95.00;;;;;;5052491;28;20049;-44
2022/06/05 08:14:53;;;;;;;11.45;8.10;;;20.30;95.60;;;;;;5060418;28;20047;-44
2022/06/05 08:17:22;;;;;;;11.65;7.90;;;20.40;95.30;;;;;;5078402;28;20527;-44
2022/06/05 08:19:49;;;;;;;12.60;7.90;;;20.50;94.90;;;;;;5061842;28;20052;-43
2022/06/05 08:22:17;;;;;;;11.18;7.72;;;20.70;95.10;;;;;;5074924;28;20056;-44
2022/06/05 08:24:43;;;;;;;11.77;8.73;;;20.90;94.90;;;;;;5059558;28;20117;-43
2022/06/05 08:27:11;;;;;;;12.32;7.95;;;21.00;94.00;;;;;;5073176;28;20045;-44
2022/06/05 08:29:38;;;;;;;10.35;7.95;;;21.00;93.90;;;;;;5060687;28;20061;-44
2022/06/05 08:32:07;;;;;;;14.15;8.32;;;21.10;94.20;;;;;;5052461;28;20041;-44
2022/06/05 08:34:34;;;;;;;10.50;8.27;;;21.20;93.70;;;;;;5066450;28;20476;-44
2022/06/05 08:42:33;;;;;;;10.65;7.78;;;21.30;93.00;;;;;;5053294;28;20475;-44
2022/06/05 08:45:03;;;;;;;10.13;7.53;;;21.40;93.50;;;;;;5055749;28;20100;-44
2022/06/05 08:47:36;;;;;;;11.48;8.30;;;21.50;93.30;;;;;;5071310;28;20052;-44
2022/06/05 08:50:06;;;;;;;10.90;7.55;;;21.60;92.70;;;;;;5070647;28;20456;-44
2022/06/05 08:52:36;;;;;;;8.65;7.72;;;21.60;92.60;;;;;;5072196;28;20060;-44
2022/06/05 08:55:06;;;;;;;10.60;7.45;;;21.60;92.60;;;;;;5069814;28;20449;-44
2022/06/05 08:57:35;;;;;;;9.32;6.85;;;21.70;92.40;;;;;;5073226;28;20526;-44
2022/06/05 09:00:06;;;;;;;8.75;7.57;;;21.80;92.50;;;;;;5055567;28;20370;-44
2022/06/05 09:02:39;;;;;;;10.65;7.75;;;21.90;92.30;;;;;;5058006;28;20059;-44
2022/06/05 09:05:08;;;;;;;10.68;7.25;;;22.00;90.90;;;;;;5053258;28;20053;-44
2022/06/05 09:07:37;;;;;;;8.68;7.38;;;22.10;91.10;;;;;;5052646;28;20045;-44
2022/06/05 09:10:07;;;;;;;12.85;7.53;;;22.20;91.20;;;;;;5074102;28;20475;-44
2022/06/05 09:12:37;;;;;;;8.52;7.55;;;22.40;90.90;;;;;;5072686;28;20052;-44
2022/06/05 09:15:07;;;;;;;9.80;6.72;;;22.50;90.70;;;;;;5063125;28;20084;-44
2022/06/05 09:17:34;;;;;;;12.48;7.28;;;22.70;90.50;;;;;;5060121;28;20071;-45
2022/06/05 09:20:03;;;;;;;12.68;7.72;;;22.80;90.40;;;;;;5071418;28;20056;-44
2022/06/05 09:22:34;;;;;;;9.65;6.72;;;23.00;89.20;;;;;;5071432;28;20110;-44
2022/06/05 09:25:25;;;;;;;10.50;7.70;;;23.10;88.80;;;;;;5064722;28;20041;-44
2022/06/05 09:27:59;;;;;;;9.02;7.68;;;23.30;88.40;;;;;;5055270;28;20090;-44
2022/06/05 09:30:29;;;;;;;10.35;6.65;;;23.30;88.30;;;;;;5059679;28;20083;-44
2022/06/05 09:33:04;;;;;;;9.02;6.47;;;23.40;88.70;;;;;;5055560;28;20515;-44
2022/06/05 09:35:36;;;;;;;8.25;6.90;;;23.60;87.40;;;;;;5070570;28;20459;-44
2022/06/05 09:38:06;;;;;;;9.93;6.88;;;23.60;86.40;;;;;;5067308;28;20417;-44
2022/06/05 09:40:35;;;;;;;8.88;5.75;;;23.70;86.70;;;;;;5058166;28;20075;-44
2022/06/05 09:43:21;;;;;;;10.98;7.05;;;23.80;88.40;;;;;;5058869;28;20419;-44
2022/06/05 09:45:54;;;;;;;15.82;6.68;;;24.00;88.00;;;;;;5051917;28;20371;-44
2022/06/05 09:48:25;;;;;;;14.40;6.90;;;24.00;87.30;;;;;;5051533;28;20165;-44
2022/06/05 09:50:53;;;;;;;8.13;6.30;;;24.00;86.10;;;;;;5072460;28;20048;-44
2022/06/05 09:53:24;;;;;;;9.98;6.70;;;23.90;86.50;;;;;;5069253;28;20048;-43
2022/06/05 09:56:01;;;;;;;9.38;6.97;;;24.00;86.40;;;;;;5053254;28;20052;-44
2022/06/05 09:58:39;;;;;;;8.98;6.65;;;23.90;85.70;;;;;;5059533;28;20478;-44
2022/06/05 10:01:20;;;;;;;8.05;6.20;;;23.90;84.90;;;;;;5052422;28;20064;-44
2022/06/05 10:03:48;;;;;;;10.55;7.30;;;24.00;85.10;;;;;;5067730;28;20114;-43
2022/06/05 10:06:22;;;;;;;11.25;7.05;;;24.00;85.60;;;;;;5072074;28;20056;-44
2022/06/05 10:08:51;;;;;;;8.98;6.90;;;24.00;84.90;;;;;;5072073;28;20055;-43
2022/06/05 10:11:24;;;;;;;8.90;7.07;;;24.00;85.00;;;;;;5071005;28;20071;-44
2022/06/05 10:13:57;;;;;;;9.23;6.45;;;24.00;84.00;;;;;;5068326;28;20076;-44
2022/06/05 10:16:25;;;;;;;7.45;6.03;;;24.00;85.00;;;;;;5068508;28;20049;-43
2022/06/05 10:18:54;;;;;;;8.82;6.47;;;24.10;84.90;;;;;;5052140;28;20412;-44
2022/06/05 10:21:24;;;;;;;6.57;5.75;;;24.10;85.00;;;;;;5063432;28;20053;-43
2022/06/05 10:23:52;;;;;;;12.75;6.03;;;24.20;85.00;;;;;;5068812;28;20049;-43
2022/06/05 10:26:28;;;;;;;8.80;5.90;;;24.20;84.30;;;;;;5051254;28;20091;-43
2022/06/05 10:29:08;;;;;;;9.35;6.32;;;24.30;84.00;;;;;;5081806;28;20052;-44
2022/06/05 10:31:35;;;;;;;9.55;6.32;;;24.30;83.20;;;;;;5077758;28;20094;-44
2022/06/05 10:34:11;;;;;;;9.10;6.35;;;24.30;84.20;;;;;;5065862;28;20053;-44
2022/06/05 10:36:56;;;;;;;8.98;5.95;;;24.30;82.50;;;;;;5066047;28;20052;-44
2022/06/05 10:39:26;;;;;;;8.30;6.47;;;24.40;84.50;;;;;;5071021;28;20049;-44
2022/06/05 10:42:19;;;;;;;8.90;5.93;;;24.40;82.80;;;;;;5055537;28;20416;-44
2022/06/05 10:44:54;;;;;;;8.55;5.25;;;24.50;83.40;;;;;;5046195;28;20140;-44
2022/06/05 10:47:27;;;;;;;7.70;5.22;;;24.40;83.50;;;;;;5051089;28;20394;-44
2022/06/05 10:49:57;;;;;;;10.85;6.55;;;24.50;84.00;;;;;;5060627;28;20064;-44
2022/06/05 10:52:28;;;;;;;11.32;6.28;;;24.50;83.00;;;;;;5074311;28;20090;-43
2022/06/05 10:54:57;;;;;;;8.38;5.55;;;24.50;83.60;;;;;;5061258;28;20057;-44
2022/06/05 10:57:26;;;;;;;11.43;6.68;;;24.50;83.80;;;;;;5058849;28;20114;-44
2022/06/05 10:59:57;;;;;;;6.32;5.72;;;24.60;82.90;;;;;;5072182;28;20048;-44
2022/06/05 11:02:27;;;;;;;;;;;24.70;82.70;;;;;;5061391;28;20087;-44
2022/06/05 11:04:59;;;;;;;11.48;5.95;;;24.70;84.50;;;;;;5075072;28;19921;-44
2022/06/05 11:07:38;;;;;;;7.70;5.53;;;24.80;83.50;;;;;;5075159;28;20126;-44
2022/06/05 11:10:10;;;;;;;6.15;5.60;;;24.80;83.30;;;;;;5083355;28;20244;-44
2022/06/05 11:15:35;;;;;;;9.13;5.90;;;24.90;83.30;;;;;;5077135;28;20068;-44
2022/06/05 11:18:05;;;;;;;7.13;5.32;;;24.90;82.70;;;;;;5073047;28;20488;-44
2022/06/05 11:20:32;;;;;;;10.38;5.43;;;24.90;82.50;;;;;;5074615;28;20437;-44
2022/06/05 11:23:03;;;;;;;10.70;6.53;;;25.00;81.50;;;;;;5089717;28;20141;-44
2022/06/05 11:25:31;;;;;;;9.50;5.60;;;24.90;79.40;;;;;;5070644;28;20169;-44
2022/06/05 11:28:12;;;;;;;7.65;6.28;;;24.90;80.00;;;;;;5073299;28;20517;-44
2022/06/05 11:30:42;;;;;;;7.87;5.47;;;24.90;78.30;;;;;;5074590;28;20439;-44
2022/06/05 11:33:12;;;;;;;10.85;6.43;;;24.80;79.60;;;;;;5082224;28;20063;-44
2022/06/05 11:35:59;;;;;;;10.43;6.33;;;24.90;79.40;;;;;;5070073;28;20378;-44
2022/06/05 11:38:34;;;;;;;8.40;6.30;;;24.90;79.50;;;;;;5068898;28;20110;-43
2022/06/05 11:41:04;;;;;;;7.75;6.30;;;24.90;80.60;;;;;;5065138;28;20099;-44
2022/06/05 11:43:33;;;;;;;9.52;6.50;;;25.00;80.10;;;;;;5074631;28;20083;-44
2022/06/05 11:46:09;;;;;;;7.88;6.45;;;25.10;80.40;;;;;;5071466;28;20048;-43
2022/06/05 11:48:38;;;;;;;7.93;6.28;;;25.20;80.10;;;;;;5057061;28;20408;-43
2022/06/05 11:51:09;;;;;;;11.85;6.18;;;25.20;78.50;;;;;;5084500;28;20072;-44
2022/06/05 11:53:43;;;;;;;7.47;5.95;;;25.20;78.30;;;;;;5074913;28;20401;-44
2022/06/05 11:56:32;;;;;;;7.97;5.93;;;25.20;78.50;;;;;;5074394;28;20094;-44
2022/06/05 11:59:04;;;;;;;11.10;5.80;;;25.10;78.80;;;;;;5052892;28;20064;-44
2022/06/05 12:01:33;;;;;;;8.48;5.85;;;25.10;78.40;;;;;;5071417;28;20558;-45
2022/06/05 12:04:05;;;;;;;7.00;5.32;;;25.10;77.30;;;;;;5074166;28;20048;-44
2022/06/05 12:06:37;;;;;;;9.40;5.47;;;25.10;77.80;;;;;;5074143;28;20476;-44
2022/06/05 12:09:06;;;;;;;9.82;6.30;;;25.10;78.10;;;;;;5074306;28;20135;-45
2022/06/05 12:11:36;;;;;;;9.98;6.03;;;25.10;78.10;;;;;;5062706;28;20053;-43
2022/06/05 12:14:12;;;;;;;10.25;6.40;;;25.00;77.50;;;;;;5074829;28;20500;-44
2022/06/05 12:16:44;;;;;;;8.50;5.75;;;24.90;77.40;;;;;;5074463;28;20110;-44
2022/06/05 12:19:15;;;;;;;7.75;6.50;;;24.90;77.80;;;;;;5062753;28;20079;-44
2022/06/05 12:21:48;;;;;;;8.02;6.65;;;24.90;77.90;;;;;;5053846;28;20489;-44
2022/06/05 12:24:20;;;;;;;9.98;6.28;;;24.80;77.60;;;;;;5063612;28;20440;-44
2022/06/05 12:26:51;;;;;;;6.70;5.82;;;24.70;77.70;;;;;;5053796;28;20103;-44
2022/06/05 12:29:19;;;;;;;10.02;5.93;;;24.80;78.00;;;;;;5053214;28;20052;-44
2022/06/05 12:31:48;;;;;;;8.15;6.15;;;24.70;78.00;;;;;;5064650;28;20374;-44
2022/06/05 12:34:16;;;;;;;11.85;6.32;;;24.70;79.00;;;;;;5062853;28;20098;-44
2022/06/05 12:36:45;;;;;;;6.13;5.50;;;24.70;78.40;;;;;;5053601;28;20052;-45
2022/06/05 12:39:17;;;;;;;7.65;6.10;;;24.70;78.50;;;;;;5068611;28;20447;-44
2022/06/05 12:41:48;;;;;;;6.68;5.20;;;24.80;79.00;;;;;;5066892;28;20098;-44
2022/06/05 12:44:22;;;;;;;8.90;5.75;;;24.90;79.70;;;;;;5056282;28;20064;-45
2022/06/05 12:46:53;;;;;;;9.48;6.20;;;25.00;79.90;;;;;;5064311;28;20493;-43
2022/06/05 12:49:25;;;;;;;6.47;5.82;;;25.00;80.10;;;;;;5083109;28;20059;-44
2022/06/05 12:51:57;;;;;;;6.15;5.38;;;25.00;79.60;;;;;;5066470;28;20049;-44
2022/06/05 12:54:29;;;;;;;12.20;6.15;;;25.00;79.30;;;;;;5053366;28;20053;-44
2022/06/05 12:56:56;;;;;;;9.00;6.20;;;25.10;79.30;;;;;;5061843;28;20105;-44
2022/06/05 12:59:26;;;;;;;10.57;5.97;;;25.00;78.50;;;;;;5063266;28;20060;-44
2022/06/05 13:01:57;;;;;;;8.35;6.32;;;25.00;78.50;;;;;;5052381;28;20116;-44